Time;durP1;ratioP1;P1;durP2;ratioP2;P2;SDS_P1;SDS_P2;PMS_P1;PMS_P2;Temp;Humidity;BMP_temperature;BMP_pressure;BME280_temperature;BME280_humidity;BME280_pressure;Samples;Min_cycle;Max_cycle;Signal;HPM_P1;HPM_P2
2022/10/08 00:01:26;;;;;;;15.50;14.10;;;;;;;;;;5050483;28;20516;-74
2022/10/08 00:03:55;;;;;;;14.87;13.33;;;;;;;;;;5049731;28;20442;-75
2022/10/08 00:06:22;;;;;;;14.20;12.80;;;;;;;;;;5050094;28;20813;-74
2022/10/08 00:08:50;;;;;;;15.37;13.77;;;;;;;;;;5049986;28;20481;-76
2022/10/08 00:11:20;;;;;;;13.70;12.50;;;;;;;;;;5049976;28;20461;-75
2022/10/08 00:13:49;;;;;;;15.57;14.17;;;;;;;;;;5049521;28;20457;-75
2022/10/08 00:16:18;;;;;;;14.23;12.83;;;;;;;;;;5050141;28;20545;-75
2022/10/08 00:18:47;;;;;;;14.60;13.13;;;;;;;;;;5050257;28;20441;-75
2022/10/08 00:21:15;;;;;;;16.00;14.50;;;;;;;;;;5049600;28;20470;-75
2022/10/08 00:23:42;;;;;;;14.30;13.10;;;;;;;;;;5049212;28;20968;-75
2022/10/08 00:26:10;;;;;;;16.70;13.47;;;;;;;;;;5049726;28;20442;-76
2022/10/08 00:28:39;;;;;;;14.50;13.17;;;;;;;;;;5049972;28;20480;-75
2022/10/08 00:31:08;;;;;;;14.10;12.80;;;;;;;;;;5049730;28;20476;-75
2022/10/08 00:33:35;;;;;;;14.80;13.30;;;;;;;;;;5049318;28;20445;-75
2022/10/08 00:36:03;;;;;;;15.37;13.80;;;;;;;;;;5050366;28;20459;-75
2022/10/08 00:38:30;;;;;;;14.53;13.03;;;;;;;;;;5049934;28;20442;-74
2022/10/08 00:40:58;;;;;;;14.00;12.63;;;;;;;;;;5049974;28;20469;-75
2022/10/08 00:43:42;;;;;;;14.73;13.30;;;;;;;;;;5049456;28;20454;-75
2022/10/08 00:46:18;;;;;;;14.77;13.27;;;;;;;;;;5049046;28;20489;-74
2022/10/08 00:48:45;;;;;;;16.13;14.60;;;;;;;;;;5049587;28;20492;-75
2022/10/08 00:51:12;;;;;;;16.23;14.70;;;;;;;;;;5049561;28;20818;-75
2022/10/08 00:53:39;;;;;;;15.27;13.77;;;;;;;;;;5049483;28;20442;-74
2022/10/08 00:56:08;;;;;;;16.83;15.13;;;;;;;;;;5050025;28;20457;-75
2022/10/08 00:58:35;;;;;;;15.30;13.70;;;;;;;;;;5049779;28;20991;-76
2022/10/08 01:01:02;;;;;;;15.47;14.07;;;;;;;;;;5049991;28;20552;-75
2022/10/08 01:03:31;;;;;;;15.40;13.80;;;;;;;;;;5049338;28;20489;-76
2022/10/08 01:06:01;;;;;;;15.83;14.20;;;;;;;;;;5049880;28;20454;-74
2022/10/08 01:08:32;;;;;;;16.43;13.83;;;;;;;;;;5049926;28;20469;-75
2022/10/08 01:11:03;;;;;;;16.33;15.03;;;;;;;;;;5049493;28;20476;-76
2022/10/08 01:13:40;;;;;;;16.30;14.60;;;;;;;;;;5048972;28;20450;-76
2022/10/08 01:16:11;;;;;;;15.97;14.47;;;;;;;;;;5049612;28;20449;-76
2022/10/08 01:18:44;;;;;;;15.80;14.40;;;;;;;;;;5049758;28;20446;-75
2022/10/08 01:21:13;;;;;;;15.77;14.40;;;;;;;;;;5049470;28;20473;-76
2022/10/08 01:23:47;;;;;;;16.07;14.63;;;;;;;;;;5048946;28;20944;-75
2022/10/08 01:26:24;;;;;;;17.63;15.93;;;;;;;;;;5049578;28;20445;-75
2022/10/08 01:28:57;;;;;;;22.43;16.33;;;;;;;;;;5050012;28;20488;-75
2022/10/08 01:31:26;;;;;;;16.53;15.03;;;;;;;;;;5049808;28;20952;-76
2022/10/08 01:33:59;;;;;;;16.77;15.20;;;;;;;;;;5050161;28;20446;-76
2022/10/08 01:36:27;;;;;;;16.13;14.43;;;;;;;;;;5053387;28;20464;-75
2022/10/08 01:38:55;;;;;;;17.40;15.60;;;;;;;;;;5053229;28;20445;-75
2022/10/08 01:41:23;;;;;;;16.20;14.57;;;;;;;;;;5053252;28;20475;-75
2022/10/08 01:43:52;;;;;;;19.03;15.80;;;;;;;;;;5052691;28;20917;-75
2022/10/08 01:46:23;;;;;;;16.87;15.33;;;;;;;;;;5052824;28;20445;-75
2022/10/08 01:48:52;;;;;;;18.73;15.47;;;;;;;;;;5052923;28;20472;-75
2022/10/08 01:51:22;;;;;;;17.53;15.87;;;;;;;;;;5053571;28;20473;-75
2022/10/08 01:53:50;;;;;;;17.50;15.87;;;;;;;;;;5052401;28;20480;-75
2022/10/08 01:56:20;;;;;;;16.70;15.27;;;;;;;;;;5052811;28;20880;-75
2022/10/08 01:58:49;;;;;;;17.93;16.10;;;;;;;;;;5055649;28;20457;-75
2022/10/08 02:01:21;;;;;;;17.07;15.53;;;;;;;;;;5057218;28;20472;-75
2022/10/08 02:06:30;;;;;;;16.60;14.93;;;;;;;;;;5052714;28;20473;-76
2022/10/08 02:08:58;;;;;;;18.00;16.10;;;;;;;;;;5052789;28;20489;-75
2022/10/08 02:11:25;;;;;;;17.20;15.50;;;;;;;;;;5052878;28;20838;-75
2022/10/08 02:13:52;;;;;;;17.87;16.03;;;;;;;;;;5052580;28;20905;-75
2022/10/08 02:16:23;;;;;;;18.07;16.17;;;;;;;;;;5052589;28;20528;-76
2022/10/08 02:18:57;;;;;;;16.87;15.27;;;;;;;;;;5052817;28;20448;-75
2022/10/08 02:21:25;;;;;;;17.07;15.20;;;;;;;;;;5052510;28;20480;-75
2022/10/08 02:23:56;;;;;;;17.17;15.47;;;;;;;;;;5051614;28;21026;-76
2022/10/08 02:26:28;;;;;;;16.13;14.50;;;;;;;;;;5052241;28;20453;-76
2022/10/08 02:28:57;;;;;;;18.40;16.60;;;;;;;;;;5052005;28;20478;-75
2022/10/08 02:31:26;;;;;;;16.20;14.80;;;;;;;;;;5052316;28;20485;-75
2022/10/08 02:33:55;;;;;;;16.73;14.90;;;;;;;;;;5052100;28;20449;-76
2022/10/08 02:36:25;;;;;;;16.57;14.80;;;;;;;;;;5051903;28;20895;-76
2022/10/08 02:38:53;;;;;;;16.77;15.17;;;;;;;;;;5054048;28;20438;-75
2022/10/08 02:41:22;;;;;;;16.17;14.67;;;;;;;;;;5051760;28;20458;-75
2022/10/08 02:43:50;;;;;;;16.67;15.07;;;;;;;;;;5051900;28;20460;-76
2022/10/08 02:46:18;;;;;;;18.03;15.53;;;;;;;;;;5051986;28;20448;-75
2022/10/08 02:48:47;;;;;;;17.53;15.93;;;;;;;;;;5051944;28;20593;-76
2022/10/08 02:51:17;;;;;;;17.13;15.13;;;;;;;;;;5052410;28;20825;-75
2022/10/08 02:53:47;;;;;;;16.33;14.73;;;;;;;;;;5052474;28;20540;-75
2022/10/08 02:56:15;;;;;;;17.33;15.63;;;;;;;;;;5055938;28;20452;-76
2022/10/08 02:58:44;;;;;;;17.50;15.90;;;;;;;;;;5059175;28;20456;-75
2022/10/08 03:01:15;;;;;;;15.43;14.03;;;;;;;;;;5058181;28;21094;-76
2022/10/08 03:03:43;;;;;;;16.50;14.93;;;;;;;;;;5055280;28;20449;-76
2022/10/08 03:06:12;;;;;;;20.30;15.57;;;;;;;;;;5051942;28;20812;-75
2022/10/08 03:08:42;;;;;;;17.13;15.33;;;;;;;;;;5051516;28;20501;-75
2022/10/08 03:11:10;;;;;;;17.27;14.90;;;;;;;;;;5051345;28;20840;-75
2022/10/08 03:13:39;;;;;;;16.83;15.10;;;;;;;;;;5050683;28;20445;-75
2022/10/08 03:16:07;;;;;;;17.43;15.63;;;;;;;;;;5051344;28;20548;-76
2022/10/08 03:18:35;;;;;;;16.00;14.60;;;;;;;;;;5051001;28;20450;-75
2022/10/08 03:21:02;;;;;;;16.23;14.40;;;;;;;;;;5051074;28;20961;-76
2022/10/08 03:23:29;;;;;;;15.57;13.97;;;;;;;;;;5050597;28;20450;-75
2022/10/08 03:25:57;;;;;;;16.53;15.10;;;;;;;;;;5051154;28;21105;-75
2022/10/08 03:28:25;;;;;;;15.37;13.97;;;;;;;;;;5050824;28;20444;-75
2022/10/08 03:30:52;;;;;;;16.17;14.83;;;;;;;;;;5050860;28;20474;-75
2022/10/08 03:33:19;;;;;;;16.00;14.43;;;;;;;;;;5050400;28;20450;-75
2022/10/08 03:35:46;;;;;;;16.80;14.97;;;;;;;;;;5050785;28;20453;-75
2022/10/08 03:38:14;;;;;;;18.23;16.43;;;;;;;;;;5053839;28;20449;-75
2022/10/08 03:40:41;;;;;;;17.77;15.00;;;;;;;;;;5051224;28;20458;-76
2022/10/08 03:43:09;;;;;;;15.87;14.40;;;;;;;;;;5050352;28;20448;-75
2022/10/08 03:45:36;;;;;;;15.93;14.47;;;;;;;;;;5050714;28;20442;-75
2022/10/08 03:48:03;;;;;;;16.40;14.00;;;;;;;;;;5050749;28;20457;-75
2022/10/08 03:50:31;;;;;;;16.00;12.63;;;;;;;;;;5050798;28;20477;-74
2022/10/08 03:52:58;;;;;;;14.03;12.63;;;;;;;;;;5072922;28;20452;-75
2022/10/08 03:55:25;;;;;;;14.57;13.10;;;;;;;;;;5085551;28;20444;-76
2022/10/08 03:57:52;;;;;;;14.40;12.27;;;;;;;;;;5088835;28;21277;-75
2022/10/08 04:00:20;;;;;;;13.90;12.60;;;;;;;;;;5088566;28;20453;-75
2022/10/08 04:02:50;;;;;;;14.00;12.80;;;;;;;;;;5088803;28;20441;-76
2022/10/08 04:05:17;;;;;;;12.67;11.57;;;;;;;;;;5070685;28;20460;-75
2022/10/08 04:07:44;;;;;;;13.73;12.53;;;;;;;;;;5071723;28;20441;-75
2022/10/08 04:10:11;;;;;;;12.63;11.60;;;;;;;;;;5066323;28;20481;-75
2022/10/08 04:12:38;;;;;;;13.97;12.37;;;;;;;;;;5068167;28;20448;-77
2022/10/08 04:15:05;;;;;;;13.40;12.20;;;;;;;;;;5071090;28;20784;-75
2022/10/08 04:17:34;;;;;;;14.10;12.70;;;;;;;;;;5071464;28;20447;-74
2022/10/08 04:20:01;;;;;;;13.27;12.13;;;;;;;;;;5071604;28;20452;-75
2022/10/08 04:22:28;;;;;;;13.30;11.90;;;;;;;;;;5067248;28;20449;-75
2022/10/08 04:24:55;;;;;;;13.30;11.93;;;;;;;;;;5068656;28;20538;-75
2022/10/08 04:27:22;;;;;;;14.20;11.50;;;;;;;;;;5069837;28;20471;-76
2022/10/08 04:29:49;;;;;;;13.20;11.97;;;;;;;;;;5065632;28;20484;-75
2022/10/08 04:32:16;;;;;;;14.00;12.63;;;;;;;;;;5070073;28;20827;-75
2022/10/08 04:34:45;;;;;;;13.40;12.10;;;;;;;;;;5069448;28;20441;-76
2022/10/08 04:37:12;;;;;;;14.10;12.70;;;;;;;;;;5070092;28;20455;-76
2022/10/08 04:39:39;;;;;;;14.10;12.80;;;;;;;;;;5069362;28;20460;-76
2022/10/08 04:42:06;;;;;;;15.60;13.93;;;;;;;;;;5069483;28;20453;-76
2022/10/08 04:44:33;;;;;;;17.17;14.93;;;;;;;;;;5068558;28;20440;-76
2022/10/08 04:47:00;;;;;;;15.37;13.83;;;;;;;;;;5068667;28;20944;-76
2022/10/08 04:49:28;;;;;;;16.13;14.73;;;;;;;;;;5063682;28;20480;-77
2022/10/08 04:51:57;;;;;;;15.50;14.00;;;;;;;;;;5069736;28;20487;-75
2022/10/08 04:54:24;;;;;;;15.37;14.07;;;;;;;;;;5068519;28;20457;-77
2022/10/08 04:56:51;;;;;;;12.97;11.67;;;;;;;;;;5069558;28;20463;-77
2022/10/08 04:59:18;;;;;;;13.73;12.30;;;;;;;;;;5069776;28;20803;-76
2022/10/08 05:01:45;;;;;;;15.70;12.33;;;;;;;;;;5069988;28;20439;-75
2022/10/08 05:04:12;;;;;;;13.33;12.13;;;;;;;;;;5069311;28;20433;-75
2022/10/08 05:06:39;;;;;;;13.97;12.57;;;;;;;;;;5070109;28;20445;-75
2022/10/08 05:09:08;;;;;;;21.60;16.93;;;;;;;;;;5071423;28;20480;-75
2022/10/08 05:11:35;;;;;;;14.70;13.20;;;;;;;;;;5073585;28;20955;-75
2022/10/08 05:14:02;;;;;;;14.03;12.70;;;;;;;;;;5073043;28;20440;-76
2022/10/08 05:16:29;;;;;;;14.57;13.30;;;;;;;;;;5073863;28;20794;-77
2022/10/08 05:18:56;;;;;;;12.97;11.70;;;;;;;;;;5074430;28;20445;-76
2022/10/08 05:21:24;;;;;;;16.83;11.93;;;;;;;;;;5074409;28;20498;-76
2022/10/08 05:23:54;;;;;;;13.17;11.93;;;;;;;;;;5073108;28;20954;-76
2022/10/08 05:26:23;;;;;;;14.47;12.87;;;;;;;;;;5070323;28;20990;-75
2022/10/08 05:28:54;;;;;;;14.23;12.83;;;;;;;;;;5074857;28;20449;-75
2022/10/08 05:31:21;;;;;;;14.30;12.90;;;;;;;;;;5074585;28;20479;-77
2022/10/08 05:33:48;;;;;;;13.70;12.30;;;;;;;;;;5073631;28;20440;-76
2022/10/08 05:36:16;;;;;;;12.33;11.17;;;;;;;;;;5074345;28;20444;-75
2022/10/08 05:38:43;;;;;;;12.17;11.17;;;;;;;;;;5075083;28;20966;-77
2022/10/08 05:41:11;;;;;;;13.60;11.70;;;;;;;;;;5075208;28;20460;-76
2022/10/08 05:43:40;;;;;;;13.87;12.50;;;;;;;;;;5074921;28;20464;-76
2022/10/08 05:46:07;;;;;;;14.40;11.70;;;;;;;;;;5073134;28;20448;-76
2022/10/08 05:48:35;;;;;;;14.23;11.63;;;;;;;;;;5073030;28;20931;-76
2022/10/08 05:51:05;;;;;;;13.87;12.70;;;;;;;;;;5072734;28;20492;-76
2022/10/08 05:53:34;;;;;;;15.57;12.37;;;;;;;;;;5072458;28;20797;-76
2022/10/08 05:56:01;;;;;;;12.87;11.57;;;;;;;;;;5073079;28;20445;-76
2022/10/08 05:58:28;;;;;;;13.03;11.60;;;;;;;;;;5072648;28;20440;-75
2022/10/08 06:01:00;;;;;;;15.40;11.50;;;;;;;;;;5072921;28;20483;-75
2022/10/08 06:03:28;;;;;;;13.20;11.80;;;;;;;;;;5072104;28;20448;-76
2022/10/08 06:05:55;;;;;;;15.23;11.80;;;;;;;;;;5073154;28;20440;-75
2022/10/08 06:08:22;;;;;;;12.50;11.40;;;;;;;;;;5072884;28;20497;-76
2022/10/08 06:10:49;;;;;;;13.57;12.40;;;;;;;;;;5074539;28;20487;-75
2022/10/08 06:13:16;;;;;;;13.37;12.07;;;;;;;;;;5068343;28;20895;-75
2022/10/08 06:15:43;;;;;;;14.73;10.87;;;;;;;;;;5067871;28;20827;-76
2022/10/08 06:18:12;;;;;;;13.23;11.90;;;;;;;;;;5072311;28;20948;-76
2022/10/08 06:20:39;;;;;;;18.57;11.40;;;;;;;;;;5072154;28;20467;-75
2022/10/08 06:23:06;;;;;;;13.27;11.93;;;;;;;;;;5081799;28;20445;-75
2022/10/08 06:25:36;;;;;;;13.20;11.67;;;;;;;;;;5084909;28;20444;-75
2022/10/08 06:28:03;;;;;;;12.00;10.90;;;;;;;;;;5088691;28;20474;-74
2022/10/08 06:30:36;;;;;;;16.17;11.30;;;;;;;;;;5098531;28;20496;-76
2022/10/08 06:33:04;;;;;;;13.57;12.20;;;;;;;;;;5099486;28;20429;-74
2022/10/08 06:35:32;;;;;;;19.73;11.47;;;;;;;;;;5099551;28;20441;-74
2022/10/08 06:37:59;;;;;;;14.27;10.90;;;;;;;;;;5099366;28;20499;-74
2022/10/08 06:40:26;;;;;;;11.07;9.97;;;;;;;;;;5095135;28;20464;-75
2022/10/08 06:42:53;;;;;;;12.67;10.43;;;;;;;;;;5073035;28;20455;-75
2022/10/08 06:45:20;;;;;;;18.70;11.83;;;;;;;;;;5073266;28;20444;-76
2022/10/08 06:47:48;;;;;;;14.50;9.83;;;;;;;;;;5072734;28;20456;-75
2022/10/08 06:50:15;;;;;;;12.30;10.60;;;;;;;;;;5071948;28;21171;-76
2022/10/08 06:52:44;;;;;;;11.67;10.37;;;;;;;;;;5071426;28;21123;-75
2022/10/08 06:55:11;;;;;;;10.33;9.37;;;;;;;;;;5071456;28;20863;-76
2022/10/08 06:57:38;;;;;;;12.13;9.07;;;;;;;;;;5071540;28;20441;-75
2022/10/08 07:00:06;;;;;;;16.97;9.87;;;;;;;;;;5071993;28;20464;-75
2022/10/08 07:02:33;;;;;;;10.50;9.20;;;;;;;;;;5070935;28;20453;-76
2022/10/08 07:05:00;;;;;;;10.63;9.53;;;;;;;;;;5071526;28;20445;-75
2022/10/08 07:07:27;;;;;;;12.27;10.17;;;;;;;;;;5071670;28;20452;-76
2022/10/08 07:09:55;;;;;;;10.27;8.87;;;;;;;;;;5071279;28;20888;-75
2022/10/08 07:12:22;;;;;;;12.00;10.30;;;;;;;;;;5071449;28;20453;-77
2022/10/08 07:14:49;;;;;;;9.67;8.60;;;;;;;;;;5071223;28;20819;-75
2022/10/08 07:17:16;;;;;;;13.27;8.70;;;;;;;;;;5071834;28;20555;-75
2022/10/08 07:19:43;;;;;;;10.00;8.30;;;;;;;;;;5071550;28;20460;-75
2022/10/08 07:22:10;;;;;;;9.83;8.37;;;;;;;;;;5071359;28;20445;-75
2022/10/08 07:24:38;;;;;;;11.30;8.00;;;;;;;;;;5070624;28;20479;-75
2022/10/08 07:27:06;;;;;;;9.00;8.20;;;;;;;;;;5070870;28;20448;-75
2022/10/08 07:29:33;;;;;;;10.67;8.00;;;;;;;;;;5071176;28;20480;-76
2022/10/08 07:32:03;;;;;;;8.93;8.13;;;;;;;;;;5070299;28;20456;-76
2022/10/08 07:34:30;;;;;;;8.70;7.70;;;;;;;;;;5070797;28;20448;-76
2022/10/08 07:37:01;;;;;;;9.53;8.40;;;;;;;;;;5071464;28;20475;-75
2022/10/08 07:39:28;;;;;;;16.00;8.93;;;;;;;;;;5072147;28;20811;-76
2022/10/08 07:41:55;;;;;;;8.73;8.03;;;;;;;;;;5070875;28;20772;-76
2022/10/08 07:44:23;;;;;;;10.83;8.70;;;;;;;;;;5070351;28;20909;-75
2022/10/08 07:46:52;;;;;;;8.53;6.80;;;;;;;;;;5069934;28;20992;-76
2022/10/08 07:49:19;;;;;;;10.93;7.83;;;;;;;;;;5069925;28;20828;-75
2022/10/08 07:51:47;;;;;;;8.50;7.07;;;;;;;;;;5069823;28;20484;-77
2022/10/08 07:54:15;;;;;;;11.97;7.70;;;;;;;;;;5069692;28;20451;-76
2022/10/08 07:56:42;;;;;;;12.37;7.17;;;;;;;;;;5070206;28;20959;-77
2022/10/08 07:59:13;;;;;;;9.40;6.50;;;;;;;;;;5071168;28;20466;-77
2022/10/08 08:01:42;;;;;;;7.67;5.93;;;;;;;;;;5072350;28;20456;-76
2022/10/08 08:04:10;;;;;;;10.10;6.90;;;;;;;;;;5073639;28;20811;-77
2022/10/08 08:06:39;;;;;;;7.50;5.80;;;;;;;;;;5070300;28;20441;-75
2022/10/08 08:09:06;;;;;;;8.93;6.07;;;;;;;;;;5070781;28;20441;-75
2022/10/08 08:11:33;;;;;;;7.37;5.60;;;;;;;;;;5065548;28;20611;-76
2022/10/08 08:14:00;;;;;;;8.63;5.77;;;;;;;;;;5049932;28;20460;-77
2022/10/08 08:16:28;;;;;;;6.70;4.77;;;;;;;;;;5051233;28;20951;-76
2022/10/08 08:18:58;;;;;;;8.07;4.83;;;;;;;;;;5050212;28;20482;-75
2022/10/08 08:21:27;;;;;;;5.47;4.97;;;;;;;;;;5050658;28;20469;-76
2022/10/08 08:23:55;;;;;;;7.53;4.23;;;;;;;;;;5049894;28;20948;-75
2022/10/08 08:26:23;;;;;;;10.10;4.40;;;;;;;;;;5050351;28;20450;-75
2022/10/08 08:28:51;;;;;;;10.07;4.47;;;;;;;;;;5050585;28;20472;-77
2022/10/08 08:31:19;;;;;;;6.40;3.20;;;;;;;;;;5050525;28;20477;-76
2022/10/08 08:33:49;;;;;;;7.60;4.07;;;;;;;;;;5050515;28;20453;-76
2022/10/08 08:36:18;;;;;;;13.93;4.30;;;;;;;;;;5050589;28;20445;-76
2022/10/08 08:38:45;;;;;;;9.90;4.30;;;;;;;;;;5050511;28;20523;-75
2022/10/08 08:41:19;;;;;;;6.57;3.27;;;;;;;;;;5053070;28;20470;-76
2022/10/08 08:43:46;;;;;;;8.20;3.40;;;;;;;;;;5069546;28;20960;-76
2022/10/08 08:46:15;;;;;;;5.33;3.57;;;;;;;;;;5070020;28;20555;-75
2022/10/08 08:48:44;;;;;;;5.57;3.23;;;;;;;;;;5070329;28;20441;-76
2022/10/08 08:51:11;;;;;;;5.87;3.80;;;;;;;;;;5071048;28;20480;-76
2022/10/08 08:53:39;;;;;;;5.50;3.17;;;;;;;;;;5072652;28;20452;-76
2022/10/08 08:56:08;;;;;;;5.97;3.30;;;;;;;;;;5073150;28;20452;-75
2022/10/08 08:58:41;;;;;;;6.40;3.17;;;;;;;;;;5071242;28;20440;-76
2022/10/08 09:01:14;;;;;;;9.13;3.80;;;;;;;;;;5069733;28;20463;-76
2022/10/08 09:03:43;;;;;;;9.33;3.43;;;;;;;;;;5069758;28;20448;-76
2022/10/08 09:06:13;;;;;;;6.50;3.30;;;;;;;;;;5072885;28;20451;-75
2022/10/08 09:08:44;;;;;;;5.77;3.70;;;;;;;;;;5073117;28;20447;-76
2022/10/08 09:11:13;;;;;;;10.87;3.77;;;;;;;;;;5070512;28;20480;-76
2022/10/08 09:13:42;;;;;;;6.30;3.53;;;;;;;;;;5049289;28;20495;-75
2022/10/08 09:16:11;;;;;;;8.23;3.60;;;;;;;;;;5050406;28;20449;-77
2022/10/08 09:18:38;;;;;;;7.50;2.70;;;;;;;;;;5049882;28;20456;-76
2022/10/08 09:21:06;;;;;;;8.20;3.00;;;;;;;;;;5049653;28;20461;-75
2022/10/08 09:23:33;;;;;;;5.77;3.00;;;;;;;;;;5049016;28;20441;-76
2022/10/08 09:26:04;;;;;;;7.93;2.43;;;;;;;;;;5049838;28;20464;-75
2022/10/08 09:28:38;;;;;;;11.80;2.90;;;;;;;;;;5049852;28;20454;-75
2022/10/08 09:31:11;;;;;;;7.50;3.00;;;;;;;;;;5049704;28;20485;-76
2022/10/08 09:33:39;;;;;;;7.90;2.83;;;;;;;;;;5049075;28;20461;-76
2022/10/08 09:36:06;;;;;;;7.20;2.90;;;;;;;;;;5049464;28;20426;-76
2022/10/08 09:38:36;;;;;;;6.20;2.87;;;;;;;;;;5050095;28;20476;-76
2022/10/08 09:41:05;;;;;;;6.93;2.90;;;;;;;;;;5049895;28;20461;-76
2022/10/08 09:43:33;;;;;;;7.00;2.63;;;;;;;;;;5048758;28;20759;-77
2022/10/08 09:46:03;;;;;;;5.43;3.27;;;;;;;;;;5050490;28;20863;-76
2022/10/08 09:48:31;;;;;;;7.37;3.10;;;;;;;;;;5049752;28;20461;-77
2022/10/08 09:51:00;;;;;;;7.63;3.27;;;;;;;;;;5049443;28;20489;-76
2022/10/08 09:53:29;;;;;;;8.00;2.70;;;;;;;;;;5049029;28;20449;-76
2022/10/08 09:55:58;;;;;;;5.60;2.60;;;;;;;;;;5052399;28;20473;-77
2022/10/08 09:58:26;;;;;;;4.77;2.73;;;;;;;;;;5053103;28;20448;-75
2022/10/08 10:00:58;;;;;;;8.80;3.03;;;;;;;;;;5052437;28;20461;-76
2022/10/08 10:03:26;;;;;;;5.53;2.50;;;;;;;;;;5065447;28;20451;-76
2022/10/08 10:05:54;;;;;;;7.40;3.03;;;;;;;;;;5072811;28;20517;-76
2022/10/08 10:08:39;;;;;;;8.37;3.07;;;;;;;;;;5072642;28;20448;-76
2022/10/08 10:11:06;;;;;;;7.50;2.50;;;;;;;;;;5062350;28;20488;-76
2022/10/08 10:13:36;;;;;;;9.60;2.77;;;;;;;;;;5071864;28;20468;-75
2022/10/08 10:16:05;;;;;;;9.07;3.23;;;;;;;;;;5073345;28;20958;-76
2022/10/08 10:18:35;;;;;;;4.87;2.40;;;;;;;;;;5074575;28;20449;-76
2022/10/08 10:21:06;;;;;;;5.10;2.37;;;;;;;;;;5072090;28;20465;-76
2022/10/08 10:23:35;;;;;;;8.30;2.87;;;;;;;;;;5072198;28;20429;-76
2022/10/08 10:26:04;;;;;;;7.10;2.90;;;;;;;;;;5072839;28;20444;-76
2022/10/08 10:28:35;;;;;;;5.53;2.50;;;;;;;;;;5072999;28;20441;-76
2022/10/08 10:31:04;;;;;;;9.03;3.10;;;;;;;;;;5084808;28;20484;-76
2022/10/08 10:33:33;;;;;;;6.47;3.33;;;;;;;;;;5074772;28;20446;-76
2022/10/08 10:36:02;;;;;;;5.10;3.27;;;;;;;;;;5072106;28;20962;-75
2022/10/08 10:38:31;;;;;;;9.77;3.30;;;;;;;;;;5072080;28;20444;-75
2022/10/08 10:41:04;;;;;;;8.90;3.20;;;;;;;;;;5072276;28;20472;-75
2022/10/08 10:43:36;;;;;;;9.47;3.30;;;;;;;;;;5071461;28;20943;-75
2022/10/08 10:46:09;;;;;;;5.43;2.63;;;;;;;;;;5071538;28;20449;-76
2022/10/08 10:48:36;;;;;;;5.80;2.60;;;;;;;;;;5070103;28;20445;-76
2022/10/08 10:51:08;;;;;;;6.40;2.63;;;;;;;;;;5062062;28;20952;-76
2022/10/08 10:53:40;;;;;;;5.60;2.97;;;;;;;;;;5069284;28;20467;-76
2022/10/08 10:56:10;;;;;;;6.37;2.37;;;;;;;;;;5071601;28;20962;-75
2022/10/08 10:58:41;;;;;;;4.83;2.40;;;;;;;;;;5071668;28;20441;-75
2022/10/08 11:01:16;;;;;;;11.73;3.13;;;;;;;;;;5071455;28;20476;-75
2022/10/08 11:03:46;;;;;;;5.57;2.87;;;;;;;;;;5070572;28;20443;-75
2022/10/08 11:06:34;;;;;;;7.27;2.40;;;;;;;;;;5070631;28;20515;-77
2022/10/08 11:09:03;;;;;;;5.30;2.50;;;;;;;;;;5062651;28;20458;-76
2022/10/08 11:11:35;;;;;;;5.30;2.17;;;;;;;;;;5070945;28;20488;-75
2022/10/08 11:14:12;;;;;;;9.13;2.80;;;;;;;;;;5069285;28;20476;-76
2022/10/08 11:16:49;;;;;;;4.37;2.43;;;;;;;;;;5067512;28;20449;-75
2022/10/08 11:19:26;;;;;;;9.27;2.57;;;;;;;;;;5060392;28;20925;-76
2022/10/08 11:21:58;;;;;;;8.70;2.77;;;;;;;;;;5063957;28;20459;-76
2022/10/08 11:24:30;;;;;;;10.83;2.80;;;;;;;;;;5069957;28;20475;-75
2022/10/08 11:27:03;;;;;;;7.40;2.50;;;;;;;;;;5063988;28;20952;-75
2022/10/08 11:29:36;;;;;;;6.80;2.20;;;;;;;;;;5059849;28;20465;-76
2022/10/08 11:32:08;;;;;;;3.67;2.23;;;;;;;;;;5067457;28;20473;-76
2022/10/08 11:34:37;;;;;;;5.03;2.73;;;;;;;;;;5065587;28;20444;-76
2022/10/08 11:37:09;;;;;;;5.93;2.30;;;;;;;;;;5070342;28;20445;-75
2022/10/08 11:39:44;;;;;;;4.90;1.93;;;;;;;;;;5070622;28;20522;-75
2022/10/08 11:42:15;;;;;;;7.80;2.20;;;;;;;;;;5070401;28;20465;-75
2022/10/08 11:44:42;;;;;;;5.57;2.33;;;;;;;;;;5070341;28;20455;-76
2022/10/08 11:47:27;;;;;;;5.50;2.20;;;;;;;;;;5070522;28;20455;-76
2022/10/08 11:49:56;;;;;;;3.00;1.93;;;;;;;;;;5050783;28;20472;-75
2022/10/08 11:52:28;;;;;;;9.03;2.90;;;;;;;;;;5050868;28;20492;-75
2022/10/08 11:54:56;;;;;;;6.00;2.70;;;;;;;;;;5050285;28;20449;-75
2022/10/08 11:57:31;;;;;;;8.60;2.00;;;;;;;;;;5050603;28;20937;-75
2022/10/08 11:59:59;;;;;;;7.53;2.47;;;;;;;;;;5050436;28;20522;-77
2022/10/08 12:02:28;;;;;;;5.63;2.47;;;;;;;;;;5050736;28;21128;-75
2022/10/08 12:04:58;;;;;;;6.63;2.77;;;;;;;;;;5050443;28;20544;-75
2022/10/08 12:07:27;;;;;;;7.13;2.80;;;;;;;;;;5050743;28;20468;-76
2022/10/08 12:10:18;;;;;;;4.30;1.93;;;;;;;;;;5049829;28;20465;-76
2022/10/08 12:13:02;;;;;;;8.03;2.73;;;;;;;;;;5065160;28;20483;-76
2022/10/08 12:15:48;;;;;;;5.63;2.33;;;;;;;;;;5070493;28;20435;-76
2022/10/08 12:18:32;;;;;;;5.10;2.00;;;;;;;;;;5070000;28;20459;-76
2022/10/08 12:21:19;;;;;;;4.37;2.60;;;;;;;;;;5070303;28;20492;-76
2022/10/08 12:23:47;;;;;;;3.23;2.17;;;;;;;;;;5069708;28;20459;-75
2022/10/08 12:26:16;;;;;;;4.57;2.30;;;;;;;;;;5070557;28;20452;-76
2022/10/08 12:28:49;;;;;;;6.03;2.50;;;;;;;;;;5070251;28;20449;-75
2022/10/08 12:31:17;;;;;;;3.23;2.27;;;;;;;;;;5069845;28;20522;-76
2022/10/08 12:33:54;;;;;;;4.60;2.30;;;;;;;;;;5069185;28;20444;-76
2022/10/08 12:36:25;;;;;;;4.33;2.17;;;;;;;;;;5069535;28;20460;-76
2022/10/08 12:38:58;;;;;;;4.00;2.13;;;;;;;;;;5070136;28;20452;-76
2022/10/08 12:41:27;;;;;;;6.33;2.33;;;;;;;;;;5069753;28;20457;-76
2022/10/08 12:43:58;;;;;;;4.87;2.00;;;;;;;;;;5070144;28;20449;-75
2022/10/08 12:46:30;;;;;;;5.10;2.30;;;;;;;;;;5070204;28;20440;-76
2022/10/08 12:49:00;;;;;;;6.67;2.30;;;;;;;;;;5070575;28;20439;-76
2022/10/08 12:51:30;;;;;;;5.73;1.93;;;;;;;;;;5069672;28;20489;-75
2022/10/08 12:53:59;;;;;;;4.70;2.37;;;;;;;;;;5068560;28;20959;-76
2022/10/08 12:56:28;;;;;;;4.80;2.03;;;;;;;;;;5070100;28;20658;-76
2022/10/08 12:58:56;;;;;;;7.77;2.20;;;;;;;;;;5069873;28;20448;-76
2022/10/08 13:01:24;;;;;;;4.63;2.20;;;;;;;;;;5069705;28;20464;-75
2022/10/08 13:04:17;;;;;;;3.33;1.67;;;;;;;;;;5069576;28;20448;-75
2022/10/08 13:06:44;;;;;;;2.90;1.53;;;;;;;;;;5068443;28;20479;-75
2022/10/08 13:09:26;;;;;;;4.23;1.67;;;;;;;;;;5068227;28;20440;-76
2022/10/08 13:11:53;;;;;;;3.30;1.80;;;;;;;;;;5061239;28;20477;-75
2022/10/08 13:14:27;;;;;;;4.67;2.00;;;;;;;;;;5048454;28;20441;-75
2022/10/08 13:16:55;;;;;;;3.97;1.50;;;;;;;;;;5048833;28;20445;-75
2022/10/08 13:19:30;;;;;;;3.80;1.87;;;;;;;;;;5048770;28;20462;-76
2022/10/08 13:21:59;;;;;;;5.03;1.90;;;;;;;;;;5048807;28;20510;-75
2022/10/08 13:24:32;;;;;;;3.07;1.77;;;;;;;;;;5047774;28;20512;-75
2022/10/08 13:26:59;;;;;;;6.70;1.60;;;;;;;;;;5048842;28;20443;-75
2022/10/08 13:29:28;;;;;;;4.27;1.67;;;;;;;;;;5048760;28;20548;-75
2022/10/08 13:31:57;;;;;;;3.53;1.77;;;;;;;;;;5052675;28;20626;-76
2022/10/08 13:34:25;;;;;;;3.07;1.60;;;;;;;;;;5051363;28;20503;-75
2022/10/08 13:36:53;;;;;;;2.17;1.37;;;;;;;;;;5056432;28;20490;-76
2022/10/08 13:39:22;;;;;;;4.20;1.63;;;;;;;;;;5070849;28;20445;-76
2022/10/08 13:41:52;;;;;;;3.57;1.57;;;;;;;;;;5064645;28;20936;-76
2022/10/08 13:44:19;;;;;;;2.93;2.10;;;;;;;;;;5072897;28;20447;-75
2022/10/08 13:46:46;;;;;;;3.70;1.40;;;;;;;;;;5071746;28;20539;-75
2022/10/08 13:49:20;;;;;;;4.77;1.37;;;;;;;;;;5073199;28;20436;-76
2022/10/08 13:51:47;;;;;;;1.90;1.70;;;;;;;;;;5071773;28;20571;-75
2022/10/08 13:54:15;;;;;;;4.30;2.30;;;;;;;;;;5067261;28;20935;-77
2022/10/08 13:56:42;;;;;;;3.60;2.23;;;;;;;;;;5070793;28;20462;-76
2022/10/08 13:59:11;;;;;;;3.20;2.30;;;;;;;;;;5072250;28;20940;-76
2022/10/08 14:01:38;;;;;;;2.40;1.70;;;;;;;;;;5071936;28;20448;-76
2022/10/08 14:04:05;;;;;;;5.17;2.17;;;;;;;;;;5071250;28;20443;-76
2022/10/08 14:06:32;;;;;;;3.27;1.80;;;;;;;;;;5072116;28;20451;-75
2022/10/08 14:09:00;;;;;;;3.30;1.50;;;;;;;;;;5071480;28;20526;-76
2022/10/08 14:11:27;;;;;;;3.20;1.97;;;;;;;;;;5072160;28;20617;-75
2022/10/08 14:13:54;;;;;;;5.20;2.00;;;;;;;;;;5072514;28;20851;-75
2022/10/08 14:16:22;;;;;;;3.20;1.70;;;;;;;;;;5073552;28;20971;-77
2022/10/08 14:18:49;;;;;;;3.63;1.40;;;;;;;;;;5072417;28;20467;-76
2022/10/08 14:21:17;;;;;;;1.37;1.30;;;;;;;;;;5072914;28;20468;-78
2022/10/08 14:23:44;;;;;;;3.83;1.70;;;;;;;;;;5072165;28;20947;-76
2022/10/08 14:26:12;;;;;;;1.87;1.40;;;;;;;;;;5073546;28;20441;-76
2022/10/08 14:28:39;;;;;;;4.33;1.70;;;;;;;;;;5073768;28;20494;-76
2022/10/08 14:31:06;;;;;;;2.03;1.73;;;;;;;;;;5074717;28;20472;-77
2022/10/08 14:33:35;;;;;;;3.90;1.60;;;;;;;;;;5075110;28;20484;-76
2022/10/08 14:36:02;;;;;;;4.73;1.70;;;;;;;;;;5072812;28;20449;-76
2022/10/08 14:38:31;;;;;;;5.33;1.50;;;;;;;;;;5071764;28;20456;-77
2022/10/08 14:40:59;;;;;;;2.87;1.33;;;;;;;;;;5070843;28;20468;-76
2022/10/08 14:43:26;;;;;;;3.77;1.20;;;;;;;;;;5070609;28;20499;-76
2022/10/08 14:45:53;;;;;;;3.30;1.47;;;;;;;;;;5071209;28;20441;-76